createdAt,value
2022-08-17T00:00:43.215Z,38.00
2022-08-17T00:03:13.672Z,38.67
2022-08-17T00:05:46.716Z,39.37
2022-08-17T00:08:18.044Z,39.73
2022-08-17T00:10:47.738Z,39.00
2022-08-17T00:13:21.266Z,41.63
2022-08-17T00:15:49.959Z,41.23
2022-08-17T00:19:01.048Z,40.07
2022-08-17T00:21:10.463Z,41.63
2022-08-17T00:23:47.677Z,41.27
2022-08-17T00:26:43.135Z,41.97
2022-08-17T00:29:09.861Z,42.97
2022-08-17T00:31:48.569Z,43.90
2022-08-17T00:34:16.849Z,40.87
2022-08-17T00:36:45.194Z,40.23
2022-08-17T00:39:13.471Z,41.53
2022-08-17T00:41:42.422Z,41.43
2022-08-17T00:44:14.147Z,40.93
2022-08-17T00:46:45.436Z,38.97
2022-08-17T00:49:19.357Z,39.37
2022-08-17T00:51:54.364Z,41.17
2022-08-17T00:54:28.674Z,39.20
2022-08-17T00:57:00.947Z,41.00
2022-08-17T00:59:36.657Z,37.67
2022-08-17T01:02:06.690Z,39.50
2022-08-17T01:04:35.121Z,38.97
2022-08-17T01:07:06.119Z,40.13
2022-08-17T01:09:35.159Z,33.47
2022-08-17T01:12:06.558Z,37.13
2022-08-17T01:14:39.830Z,37.07
2022-08-17T01:17:09.042Z,36.77
2022-08-17T01:19:40.605Z,36.10
2022-08-17T01:22:23.049Z,37.90
2022-08-17T01:24:54.629Z,35.40
2022-08-17T01:27:22.966Z,37.23
2022-08-17T01:29:58.676Z,35.40
2022-08-17T01:32:28.071Z,34.03
2022-08-17T01:34:58.117Z,34.33
2022-08-17T01:37:34.442Z,37.97
2022-08-17T01:40:08.678Z,40.90
2022-08-17T01:42:44.215Z,39.67
2022-08-17T01:45:17.729Z,38.47
2022-08-17T01:47:46.188Z,43.97
2022-08-17T01:50:18.234Z,43.33
2022-08-17T01:52:51.631Z,41.03
2022-08-17T01:55:27.485Z,43.00
2022-08-17T01:57:56.039Z,41.73
2022-08-17T02:00:24.755Z,41.77
2022-08-17T02:02:52.942Z,40.33
2022-08-17T02:05:21.423Z,33.00
2022-08-17T02:08:00.455Z,38.47
2022-08-17T02:10:34.066Z,43.60
2022-08-17T02:13:03.371Z,42.67
2022-08-17T02:15:32.114Z,41.73
2022-08-17T02:18:00.748Z,44.30
2022-08-17T02:20:42.205Z,41.50
2022-08-17T02:23:14.414Z,46.57
2022-08-17T02:25:44.944Z,42.53
2022-08-17T02:28:13.033Z,44.40
2022-08-17T02:30:59.370Z,41.23
2022-08-17T02:33:42.227Z,40.37
2022-08-17T02:36:13.917Z,43.77
2022-08-17T02:38:43.702Z,42.60
2022-08-17T02:41:13.062Z,43.73
2022-08-17T02:43:41.298Z,44.50
2022-08-17T02:46:10.111Z,43.30
2022-08-17T02:48:38.255Z,44.37
2022-08-17T02:51:06.972Z,41.73
2022-08-17T02:53:35.785Z,44.50
2022-08-17T02:56:06.202Z,43.70
2022-08-17T02:58:36.096Z,39.53
2022-08-17T03:01:05.821Z,45.57
2022-08-17T03:03:34.397Z,44.27
2022-08-17T03:06:02.832Z,43.63
2022-08-17T03:08:31.629Z,43.80
2022-08-17T03:10:59.875Z,41.03
2022-08-17T03:13:30.779Z,41.53
2022-08-17T03:15:59.102Z,41.80
2022-08-17T03:18:28.005Z,44.57
2022-08-17T03:20:58.490Z,44.37
2022-08-17T03:23:29.563Z,43.80
2022-08-17T03:25:58.954Z,42.10
2022-08-17T03:28:29.266Z,41.57
2022-08-17T03:30:57.463Z,38.60
2022-08-17T03:33:25.674Z,41.70
2022-08-17T03:35:53.934Z,43.70
2022-08-17T03:38:24.831Z,44.73
2022-08-17T03:40:59.396Z,44.60
2022-08-17T03:43:32.841Z,43.73
2022-08-17T03:46:27.800Z,42.47
2022-08-17T03:49:21.275Z,44.20
2022-08-17T03:52:07.128Z,42.83
2022-08-17T03:54:53.011Z,41.10
2022-08-17T03:57:21.195Z,41.67
2022-08-17T03:59:51.393Z,42.27
2022-08-17T04:02:24.253Z,42.73
2022-08-17T04:04:54.337Z,42.93
2022-08-17T04:07:25.589Z,45.03
2022-08-17T04:09:54.261Z,44.20
2022-08-17T04:12:25.115Z,44.03
2022-08-17T04:14:55.349Z,45.93
2022-08-17T04:17:26.853Z,43.37
2022-08-17T04:19:56.538Z,42.80
2022-08-17T04:22:32.681Z,43.53
2022-08-17T04:25:05.383Z,43.53
2022-08-17T04:27:33.728Z,39.87
2022-08-17T04:30:03.745Z,43.43
2022-08-17T04:33:03.989Z,45.30
2022-08-17T04:35:23.453Z,42.90
2022-08-17T04:37:51.802Z,46.40
2022-08-17T04:40:40.511Z,42.40
2022-08-17T04:43:12.590Z,45.53
2022-08-17T04:45:51.243Z,49.33
2022-08-17T04:48:35.255Z,43.83
2022-08-17T04:51:09.854Z,45.40
2022-08-17T04:53:40.211Z,44.90
2022-08-17T04:56:15.940Z,45.37
2022-08-17T04:58:47.829Z,43.30
2022-08-17T05:01:18.532Z,42.60
2022-08-17T05:03:53.375Z,44.67
2022-08-17T05:06:21.592Z,45.87
2022-08-17T05:08:49.918Z,43.87
2022-08-17T05:11:18.464Z,44.63
2022-08-17T05:13:50.068Z,44.20
2022-08-17T05:16:21.542Z,44.00
2022-08-17T05:18:49.903Z,47.37
2022-08-17T05:21:19.246Z,45.97
2022-08-17T05:23:53.930Z,47.93
2022-08-17T05:26:26.679Z,52.00
2022-08-17T05:29:00.491Z,49.17
2022-08-17T05:31:32.676Z,50.80
2022-08-17T05:34:00.844Z,52.60
2022-08-17T05:36:43.247Z,52.70
2022-08-17T05:39:15.738Z,53.40
2022-08-17T05:41:48.696Z,50.03
2022-08-17T05:44:17.852Z,53.77
2022-08-17T05:46:51.137Z,53.20
2022-08-17T05:49:24.578Z,55.20
2022-08-17T05:52:20.071Z,52.80
2022-08-17T05:55:06.260Z,54.63
2022-08-17T05:58:08.804Z,53.40
2022-08-17T06:00:48.118Z,52.23
2022-08-17T06:03:45.574Z,53.13
2022-08-17T06:06:39.841Z,50.07
2022-08-17T06:09:33.585Z,50.57
2022-08-17T06:12:20.086Z,50.13
2022-08-17T06:15:07.609Z,48.83
2022-08-17T06:17:36.777Z,45.43
2022-08-17T06:20:11.950Z,44.47
2022-08-17T06:22:45.677Z,45.13
2022-08-17T06:25:19.469Z,44.50
2022-08-17T06:27:53.483Z,43.00
2022-08-17T06:30:26.240Z,41.87
2022-08-17T06:32:59.531Z,43.03
2022-08-17T06:35:39.980Z,40.57
2022-08-17T06:38:34.968Z,39.07
2022-08-17T06:41:16.370Z,38.53
2022-08-17T06:44:04.689Z,37.33
2022-08-17T06:46:38.545Z,36.57
2022-08-17T06:49:17.681Z,37.47
2022-08-17T06:51:53.694Z,38.47
2022-08-17T06:54:35.038Z,40.23
2022-08-17T06:57:14.816Z,38.47
2022-08-17T06:59:55.755Z,38.97
2022-08-17T07:02:52.487Z,41.93
2022-08-17T07:05:26.246Z,39.00
2022-08-17T07:08:04.409Z,39.03
2022-08-17T07:10:44.696Z,40.37
2022-08-17T07:13:32.599Z,40.13
2022-08-17T07:16:16.737Z,37.47
2022-08-17T07:18:45.387Z,36.43
2022-08-17T07:21:31.540Z,36.67
2022-08-17T07:24:29.390Z,36.33
2022-08-17T07:27:16.216Z,34.43
2022-08-17T07:29:53.658Z,34.40
2022-08-17T07:32:27.718Z,33.90
2022-08-17T07:35:11.848Z,34.80
2022-08-17T07:37:42.900Z,32.70
2022-08-17T07:40:38.094Z,32.43
2022-08-17T07:43:23.082Z,30.37
2022-08-17T07:46:36.182Z,30.97
2022-08-17T07:49:35.232Z,30.57
2022-08-17T07:52:24.262Z,30.27
2022-08-17T07:54:57.471Z,29.83
2022-08-17T07:57:36.659Z,29.00
2022-08-17T08:00:32.180Z,29.17
2022-08-17T08:03:26.221Z,28.97
2022-08-17T08:06:00.249Z,28.20
2022-08-17T08:08:33.538Z,27.90
2022-08-17T08:11:09.456Z,27.73
2022-08-17T08:13:45.120Z,27.57
2022-08-17T08:16:27.570Z,26.50
2022-08-17T08:18:58.917Z,25.93
2022-08-17T08:21:38.100Z,27.53
2022-08-17T08:24:30.176Z,27.67
2022-08-17T08:27:10.269Z,28.27
2022-08-17T08:29:49.132Z,29.73
2022-08-17T08:32:23.291Z,28.63
2022-08-17T08:35:04.051Z,29.42
2022-08-17T08:37:45.048Z,28.38
2022-08-17T08:40:34.861Z,28.20
2022-08-17T08:43:16.201Z,29.40
2022-08-17T08:45:56.657Z,30.77
2022-08-17T08:48:56.376Z,30.63
2022-08-17T08:51:40.461Z,31.05
2022-08-17T08:54:27.267Z,30.15
2022-08-17T09:00:08.713Z,27.85
2022-08-17T09:03:09.013Z,26.67
2022-08-17T09:06:04.052Z,28.50
2022-08-17T09:08:54.340Z,28.75
2022-08-17T09:11:31.990Z,29.05
2022-08-17T09:14:21.568Z,28.42
2022-08-17T09:17:05.020Z,27.70
2022-08-17T09:19:40.109Z,28.27
2022-08-17T09:22:23.659Z,27.20
2022-08-17T09:24:58.355Z,28.65
2022-08-17T09:27:33.296Z,28.95
2022-08-17T09:30:07.831Z,29.17
2022-08-17T09:32:44.004Z,28.48
2022-08-17T09:35:20.023Z,27.23
2022-08-17T09:37:58.546Z,29.08
2022-08-17T09:40:34.730Z,26.40
2022-08-17T09:43:11.318Z,28.25
2022-08-17T09:45:49.493Z,26.92
2022-08-17T09:48:22.807Z,25.92
2022-08-17T09:51:08.215Z,24.92
2022-08-17T09:53:38.698Z,26.48
2022-08-17T09:56:45.984Z,27.25
2022-08-17T09:59:41.871Z,26.00
2022-08-17T10:02:56.528Z,27.75
2022-08-17T10:05:33.225Z,28.63
2022-08-17T10:08:12.473Z,29.42
2022-08-17T10:10:56.198Z,29.02
2022-08-17T10:13:41.141Z,29.85
2022-08-17T10:16:32.110Z,29.40
2022-08-17T10:19:17.303Z,29.20
2022-08-17T10:22:14.590Z,26.60
2022-08-17T10:25:22.195Z,27.52
2022-08-17T10:27:58.459Z,28.38
2022-08-17T10:30:31.094Z,29.90
2022-08-17T10:33:02.247Z,29.80
2022-08-17T10:35:43.479Z,29.30
2022-08-17T10:38:41.110Z,26.95
2022-08-17T10:41:29.033Z,29.52
2022-08-17T10:44:38.095Z,27.63
2022-08-17T10:47:10.494Z,28.70
2022-08-17T10:49:47.891Z,27.58
2022-08-17T10:52:51.670Z,28.13
2022-08-17T10:55:21.361Z,28.55
2022-08-17T10:57:54.815Z,29.52
2022-08-17T11:01:12.853Z,29.30
2022-08-17T11:03:54.097Z,28.42
2022-08-17T11:06:34.614Z,30.48
2022-08-17T11:09:29.309Z,29.23
2022-08-17T11:12:25.593Z,30.35
2022-08-17T11:15:14.441Z,29.67
2022-08-17T11:18:19.160Z,31.83
2022-08-17T11:21:14.629Z,34.72
2022-08-17T11:24:23.139Z,35.85
2022-08-17T11:27:27.398Z,36.53
2022-08-17T11:30:02.757Z,35.67
2022-08-17T11:32:47.486Z,35.50
2022-08-17T11:35:34.711Z,32.72
2022-08-17T11:38:17.726Z,34.58
2022-08-17T11:41:07.196Z,33.17
2022-08-17T11:44:11.531Z,31.75
2022-08-17T11:47:19.088Z,32.15
2022-08-17T11:50:27.922Z,28.50
2022-08-17T11:52:56.727Z,29.95
2022-08-17T11:56:04.104Z,31.63
2022-08-17T11:58:40.561Z,30.80
2022-08-17T12:01:13.586Z,31.77
2022-08-17T12:03:56.073Z,29.58
2022-08-17T12:06:46.862Z,28.70
2022-08-17T12:09:20.652Z,29.05
2022-08-17T12:12:12.410Z,28.88
2022-08-17T12:15:09.432Z,28.83
2022-08-17T12:17:40.815Z,28.08
2022-08-17T12:20:29.410Z,29.83
2022-08-17T12:23:08.048Z,29.15
2022-08-17T12:25:42.067Z,26.45
2022-08-17T12:28:23.511Z,28.13
2022-08-17T12:30:53.277Z,26.40
2022-08-17T12:33:28.639Z,27.20
2022-08-17T12:36:04.440Z,26.92
2022-08-17T12:38:35.039Z,25.75
2022-08-17T12:41:21.439Z,27.83
2022-08-17T12:44:01.582Z,25.40
2022-08-17T12:46:36.013Z,27.13
2022-08-17T12:49:23.600Z,27.05
2022-08-17T12:52:02.236Z,27.30
2022-08-17T12:54:42.592Z,27.05
2022-08-17T12:57:18.101Z,28.52
2022-08-17T12:59:52.693Z,30.20
2022-08-17T13:02:30.934Z,28.90
2022-08-17T13:05:02.324Z,28.75
2022-08-17T13:07:37.160Z,31.27
2022-08-17T13:10:06.453Z,26.85
2022-08-17T13:12:36.577Z,25.85
2022-08-17T13:15:06.211Z,26.33
2022-08-17T13:17:37.546Z,26.05
2022-08-17T13:20:15.726Z,23.75
2022-08-17T13:22:54.019Z,25.30
2022-08-17T13:25:22.839Z,25.48
2022-08-17T13:27:53.662Z,23.42
2022-08-17T13:30:28.096Z,22.58
2022-08-17T13:32:58.317Z,23.60
2022-08-17T13:35:49.900Z,23.15
2022-08-17T13:38:41.094Z,23.13
2022-08-17T13:41:09.467Z,23.92
2022-08-17T13:43:48.550Z,22.65
2022-08-17T13:46:23.848Z,22.15
2022-08-17T13:49:01.874Z,21.88
2022-08-17T13:51:34.743Z,23.48
2022-08-17T13:54:22.150Z,22.70
2022-08-17T13:56:58.712Z,23.42
2022-08-17T13:59:55.309Z,21.98
2022-08-17T14:02:28.378Z,21.88
2022-08-17T14:05:02.030Z,22.05
2022-08-17T14:07:37.246Z,21.00
2022-08-17T14:10:13.621Z,20.48
2022-08-17T14:12:44.381Z,22.02
2022-08-17T14:15:14.907Z,22.05
2022-08-17T14:17:43.111Z,22.48
2022-08-17T14:20:14.083Z,23.40
2022-08-17T14:22:47.209Z,24.25
2022-08-17T14:25:20.853Z,25.42
2022-08-17T14:27:53.172Z,24.20
2022-08-17T14:30:25.438Z,22.90
2022-08-17T14:32:57.926Z,23.52
2022-08-17T14:35:28.090Z,23.60
2022-08-17T14:37:57.551Z,23.85
2022-08-17T14:40:28.040Z,24.05
2022-08-17T14:42:58.172Z,23.73
2022-08-17T14:45:32.281Z,22.45
2022-08-17T14:48:05.622Z,22.13
2022-08-17T14:50:35.700Z,23.77
2022-08-17T14:53:05.176Z,22.40
2022-08-17T14:55:35.518Z,23.10
2022-08-17T14:58:05.073Z,24.45
2022-08-17T15:00:33.381Z,23.63
2022-08-17T15:03:02.763Z,24.08
2022-08-17T15:05:34.078Z,25.27
2022-08-17T15:08:04.630Z,24.38
2022-08-17T15:10:34.978Z,25.00
2022-08-17T15:13:03.488Z,24.70
2022-08-17T15:15:32.091Z,24.80
2022-08-17T15:18:00.997Z,24.48
2022-08-17T15:20:31.175Z,23.30
2022-08-17T15:22:59.679Z,22.88
2022-08-17T15:25:30.589Z,24.48
2022-08-17T15:28:01.232Z,25.55
2022-08-17T15:30:30.625Z,27.13
2022-08-17T15:33:00.648Z,27.45
2022-08-17T15:35:32.069Z,27.92
2022-08-17T15:38:07.964Z,26.25
2022-08-17T15:40:43.051Z,26.35
2022-08-17T15:43:15.852Z,26.98
2022-08-17T15:45:45.079Z,11.90
2022-08-17T15:48:40.594Z,6.95
2022-08-17T15:51:11.409Z,5.47
2022-08-17T15:53:41.890Z,6.00
2022-08-17T15:56:11.300Z,5.47
2022-08-17T15:58:42.195Z,4.80
2022-08-17T16:01:14.792Z,5.50
2022-08-17T16:04:06.624Z,6.77
2022-08-17T16:06:36.486Z,6.10
2022-08-17T16:09:04.811Z,6.63
2022-08-17T16:11:32.942Z,6.37
2022-08-17T16:14:02.515Z,7.30
2022-08-17T16:16:31.231Z,7.03
2022-08-17T16:18:59.531Z,7.37
2022-08-17T16:21:31.160Z,7.43
2022-08-17T16:24:12.709Z,7.90
2022-08-17T16:26:43.785Z,8.07
2022-08-17T16:29:13.417Z,8.10
2022-08-17T16:31:42.425Z,8.67
2022-08-17T16:34:17.045Z,8.03
2022-08-17T16:36:53.598Z,7.60
2022-08-17T16:39:26.065Z,8.10
2022-08-17T16:41:54.805Z,7.67
2022-08-17T16:44:25.648Z,8.27
2022-08-17T16:46:53.828Z,8.47
2022-08-17T16:49:24.492Z,8.57
2022-08-17T16:52:10.014Z,9.07
2022-08-17T16:54:41.715Z,9.10
2022-08-17T16:57:09.983Z,9.27
2022-08-17T16:59:45.020Z,9.43
2022-08-17T17:02:18.113Z,10.27
2022-08-17T17:04:54.898Z,10.43
2022-08-17T17:08:03.908Z,9.90
2022-08-17T17:10:39.243Z,10.40
2022-08-17T17:13:14.531Z,10.10
2022-08-17T17:15:55.729Z,10.40
2022-08-17T17:18:37.706Z,10.27
2022-08-17T17:21:10.650Z,11.07
2022-08-17T17:23:52.969Z,10.73
2022-08-17T17:26:38.890Z,11.50
2022-08-17T17:29:28.766Z,11.43
2022-08-17T17:32:22.647Z,13.27
2022-08-17T17:35:02.885Z,12.63
2022-08-17T17:37:36.675Z,12.73
2022-08-17T17:40:10.393Z,16.53
2022-08-17T17:42:42.698Z,18.93
2022-08-17T17:45:19.989Z,19.83
2022-08-17T17:47:50.742Z,21.23
2022-08-17T17:50:23.472Z,21.73
2022-08-17T17:53:04.029Z,22.93
2022-08-17T17:55:48.413Z,25.63
2022-08-17T17:58:35.425Z,26.67
2022-08-17T18:01:27.091Z,27.43
2022-08-17T18:04:20.493Z,25.63
2022-08-17T18:07:12.823Z,21.60
2022-08-17T18:10:29.611Z,19.97
2022-08-17T18:13:12.892Z,18.13
2022-08-17T18:15:51.352Z,14.23
2022-08-17T18:18:38.511Z,13.27
2022-08-17T18:21:16.730Z,9.57
2022-08-17T18:23:50.821Z,10.97
2022-08-17T18:26:48.384Z,10.30
2022-08-17T18:29:35.853Z,9.30
2022-08-17T18:32:40.745Z,8.37
2022-08-17T18:35:35.025Z,7.00
2022-08-17T18:38:24.764Z,7.43
2022-08-17T18:41:02.546Z,8.73
2022-08-17T18:43:44.446Z,9.40
2022-08-17T18:46:29.709Z,7.83
2022-08-17T18:49:01.333Z,7.33
2022-08-17T18:51:40.511Z,6.90
2022-08-17T18:54:24.298Z,6.83
2022-08-17T18:56:56.675Z,7.90
2022-08-17T18:59:30.942Z,6.80
2022-08-17T19:02:38.762Z,7.33
2022-08-17T19:05:13.747Z,7.47
2022-08-17T19:07:45.524Z,7.20
2022-08-17T19:10:23.012Z,8.00
2022-08-17T19:13:00.722Z,8.90
2022-08-17T19:15:36.687Z,8.90
2022-08-17T19:18:15.675Z,12.37
2022-08-17T19:20:59.595Z,10.77
2022-08-17T19:23:35.132Z,9.37
2022-08-17T19:26:50.326Z,10.83
2022-08-17T19:29:09.372Z,10.63
2022-08-17T19:31:38.022Z,12.07
2022-08-17T19:34:06.449Z,11.97
2022-08-17T19:36:43.383Z,12.73
2022-08-17T19:39:19.347Z,13.10
2022-08-17T19:41:58.482Z,14.83
2022-08-17T19:44:50.373Z,12.30
2022-08-17T19:47:51.248Z,13.07
2022-08-17T19:50:22.473Z,12.97
2022-08-17T19:52:57.978Z,14.40
2022-08-17T19:55:33.202Z,14.47
2022-08-17T19:58:12.390Z,15.97
2022-08-17T20:00:52.736Z,15.60
2022-08-17T20:03:27.639Z,15.20
2022-08-17T20:06:15.270Z,12.83
2022-08-17T20:08:57.163Z,11.83
2022-08-17T20:11:33.997Z,11.43
2022-08-17T20:14:09.383Z,11.40
2022-08-17T20:16:37.652Z,12.00
2022-08-17T20:19:12.387Z,14.93
2022-08-17T20:21:47.522Z,12.70
2022-08-17T20:24:23.789Z,13.73
2022-08-17T20:26:58.737Z,13.30
2022-08-17T20:29:37.445Z,12.57
2022-08-17T20:32:28.903Z,13.73
2022-08-17T20:35:22.831Z,15.27
2022-08-17T20:37:58.732Z,16.23
2022-08-17T20:40:38.300Z,16.27
2022-08-17T20:44:02.416Z,15.83
2022-08-17T20:46:52.281Z,18.40
2022-08-17T20:49:27.944Z,17.80
2022-08-17T20:52:03.005Z,16.50
2022-08-17T20:54:51.207Z,17.13
2022-08-17T20:57:49.769Z,17.50
2022-08-17T21:01:10.595Z,19.87
2022-08-17T21:03:52.265Z,20.77
2022-08-17T21:06:26.126Z,21.27
2022-08-17T21:09:00.676Z,17.47
2022-08-17T21:12:04.469Z,19.80
2022-08-17T21:14:58.618Z,20.17
2022-08-17T21:17:46.479Z,18.57
2022-08-17T21:20:32.914Z,18.20
2022-08-17T21:23:40.566Z,17.03
2022-08-17T21:26:21.422Z,16.83
2022-08-17T21:29:31.020Z,15.60
2022-08-17T21:32:25.190Z,14.90
2022-08-17T21:35:31.559Z,15.67
2022-08-17T21:38:15.076Z,15.73
2022-08-17T21:40:50.147Z,15.93
2022-08-17T21:43:29.295Z,15.90
2022-08-17T21:46:02.834Z,14.63
2022-08-17T21:48:33.532Z,14.50
2022-08-17T21:51:12.213Z,14.43
2022-08-17T21:53:46.332Z,16.23
2022-08-17T21:56:24.329Z,15.07
2022-08-17T21:58:58.674Z,14.40
2022-08-17T22:01:30.439Z,12.80
2022-08-17T22:04:06.600Z,11.67
2022-08-17T22:06:40.584Z,10.70
2022-08-17T22:09:20.244Z,10.00
2022-08-17T22:12:07.050Z,10.37
2022-08-17T22:14:52.576Z,9.87
2022-08-17T22:17:26.155Z,9.33
2022-08-17T22:19:59.038Z,9.67
2022-08-17T22:22:55.004Z,9.63
2022-08-17T22:25:25.630Z,8.23
2022-08-17T22:27:58.181Z,8.53
2022-08-17T22:30:37.541Z,8.77
2022-08-17T22:33:36.889Z,8.43
2022-08-17T22:36:22.145Z,8.50
2022-08-17T22:38:53.539Z,8.00
2022-08-17T22:41:48.239Z,8.30
2022-08-17T22:44:24.984Z,8.10
2022-08-17T22:47:11.152Z,8.30
2022-08-17T22:49:53.285Z,7.60
2022-08-17T22:52:35.611Z,8.43
2022-08-17T22:55:34.801Z,8.47
2022-08-17T22:58:27.830Z,8.77
2022-08-17T23:00:56.341Z,9.33
2022-08-17T23:03:28.546Z,9.57
2022-08-17T23:06:07.664Z,9.40
2022-08-17T23:08:43.844Z,9.80
2022-08-17T23:11:14.282Z,10.33
2022-08-17T23:13:42.443Z,10.30
2022-08-17T23:16:10.940Z,9.87
2022-08-17T23:18:39.134Z,10.30
2022-08-17T23:21:07.744Z,9.80
2022-08-17T23:23:37.960Z,9.70
2022-08-17T23:26:10.418Z,11.37
2022-08-17T23:28:41.025Z,10.87
2022-08-17T23:31:09.403Z,11.63
2022-08-17T23:33:39.377Z,11.13
2022-08-17T23:36:09.783Z,11.37
2022-08-17T23:38:38.171Z,11.07
2022-08-17T23:41:12.745Z,11.53
2022-08-17T23:43:44.743Z,12.03
2022-08-17T23:46:13.114Z,11.43
2022-08-17T23:48:42.101Z,12.17
2022-08-17T23:51:16.115Z,12.80
2022-08-17T23:53:48.132Z,13.13
2022-08-17T23:56:22.683Z,12.50
2022-08-17T23:58:52.402Z,11.33
